createdAt,value
2017-04-28T00:01:16.185Z,100384.68
2017-04-28T00:03:46.993Z,100382.23
2017-04-28T00:06:17.534Z,100377.83
2017-04-28T00:08:48.061Z,100379.45
2017-04-28T00:11:18.915Z,100368.86
2017-04-28T00:13:49.717Z,100372.13
2017-04-28T00:16:20.439Z,100365.58
2017-04-28T00:18:51.319Z,100372.02
2017-04-28T00:21:21.745Z,100375.33
2017-04-28T00:23:52.568Z,100365.42
2017-04-28T00:26:23.468Z,100361.70
2017-04-28T00:28:54.157Z,100365.05
2017-04-28T00:31:25.152Z,100359.97
2017-04-28T00:33:56.055Z,100359.86
2017-04-28T00:36:26.742Z,100360.81
2017-04-28T00:38:57.672Z,100363.08
2017-04-28T00:41:28.445Z,100353.59
2017-04-28T00:43:59.437Z,100351.17
2017-04-28T00:46:30.383Z,100355.97
2017-04-28T00:49:01.336Z,100341.69
2017-04-28T00:51:32.300Z,100343.55
2017-04-28T00:54:03.197Z,100341.41
2017-04-28T00:56:34.151Z,100338.73
2017-04-28T00:59:05.029Z,100338.71
2017-04-28T01:01:35.224Z,100340.34
2017-04-28T01:04:05.965Z,100344.70
2017-04-28T01:06:36.913Z,100332.17
2017-04-28T01:09:07.739Z,100336.91
2017-04-28T01:11:38.868Z,100322.05
2017-04-28T01:14:09.829Z,100321.70
2017-04-28T01:16:40.645Z,100329.72
2017-04-28T01:19:11.562Z,100319.55
2017-04-28T01:21:42.215Z,100319.34
2017-04-28T01:24:13.053Z,100320.91
2017-04-28T01:26:43.777Z,100320.23
2017-04-28T01:29:14.691Z,100326.31
2017-04-28T01:31:45.667Z,100325.91
2017-04-28T01:34:17.215Z,100323.17
2017-04-28T01:36:47.940Z,100326.80
2017-04-28T01:39:18.906Z,100323.14
2017-04-28T01:41:49.838Z,100323.03
2017-04-28T01:44:20.835Z,100318.74
2017-04-28T01:46:51.240Z,100317.75
2017-04-28T01:49:22.130Z,100320.18
2017-04-28T01:51:53.043Z,100314.72
2017-04-28T01:54:23.917Z,100311.55
2017-04-28T01:56:54.729Z,100317.59
2017-04-28T01:59:25.582Z,100312.55
2017-04-28T02:01:56.380Z,100321.13
2017-04-28T02:04:27.068Z,100320.84
2017-04-28T02:06:57.769Z,100315.56
2017-04-28T02:09:28.680Z,100314.98
2017-04-28T02:11:59.652Z,100319.47
2017-04-28T02:14:30.366Z,100310.44
2017-04-28T02:17:01.217Z,100302.78
2017-04-28T02:19:32.009Z,100306.06
2017-04-28T02:22:02.985Z,100301.99
2017-04-28T02:24:34.044Z,100304.77
2017-04-28T02:27:04.875Z,100307.45
2017-04-28T02:29:35.809Z,100313.45
2017-04-28T02:32:06.545Z,100311.13
2017-04-28T02:34:37.486Z,100302.71
2017-04-28T02:37:08.112Z,100305.95
2017-04-28T02:39:39.057Z,100296.55
2017-04-28T02:42:09.950Z,100301.80
2017-04-28T02:44:40.876Z,100309.23
2017-04-28T02:47:11.781Z,100304.18
2017-04-28T02:49:42.221Z,100305.43
2017-04-28T02:52:13.146Z,100307.53
2017-04-28T02:54:43.928Z,100302.86
2017-04-28T02:57:14.378Z,100308.39
2017-04-28T02:59:45.282Z,100307.83
2017-04-28T03:02:16.175Z,100302.83
2017-04-28T03:04:47.193Z,100306.66
2017-04-28T03:07:18.130Z,100303.77
2017-04-28T03:09:49.034Z,100306.38
2017-04-28T03:12:19.603Z,100306.47
2017-04-28T03:14:50.465Z,100306.38
2017-04-28T03:17:21.479Z,100306.16
2017-04-28T03:19:52.481Z,100308.41
2017-04-28T03:22:23.425Z,100303.19
2017-04-28T03:24:54.212Z,100301.63
2017-04-28T03:27:25.215Z,100306.58
2017-04-28T03:29:56.133Z,100303.06
2017-04-28T03:32:27.068Z,100297.29
2017-04-28T03:34:57.793Z,100305.30
2017-04-28T03:37:28.722Z,100301.03
2017-04-28T03:39:59.554Z,100298.31
2017-04-28T03:42:30.157Z,100296.78
2017-04-28T03:45:01.190Z,100291.34
2017-04-28T03:47:32.007Z,100290.52
2017-04-28T03:50:02.566Z,100295.38
2017-04-28T03:52:33.386Z,100292.92
2017-04-28T03:55:04.426Z,100295.48
2017-04-28T03:57:35.369Z,100283.28
2017-04-28T04:00:06.362Z,100287.00
2017-04-28T04:02:38.181Z,100285.25
2017-04-28T04:05:10.478Z,100289.14
2017-04-28T04:07:45.632Z,100292.73
2017-04-28T04:10:16.165Z,100289.84
2017-04-28T04:12:47.000Z,100293.79
2017-04-28T04:15:18.552Z,100290.88
2017-04-28T04:17:50.002Z,100291.08
2017-04-28T04:20:21.475Z,100293.97
2017-04-28T04:22:52.800Z,100300.83
2017-04-28T04:25:24.371Z,100298.59
2017-04-28T04:27:54.866Z,100300.49
2017-04-28T04:30:25.982Z,100298.20
2017-04-28T04:32:56.849Z,100297.34
2017-04-28T04:35:27.845Z,100294.44
2017-04-28T04:37:58.840Z,100298.78
2017-04-28T04:40:31.302Z,100296.25
2017-04-28T04:43:01.698Z,100302.11
2017-04-28T04:45:32.715Z,100303.75
2017-04-28T04:48:03.678Z,100302.57
2017-04-28T04:50:34.532Z,100301.97
2017-04-28T04:53:05.475Z,100304.51
2017-04-28T04:55:36.421Z,100303.58
2017-04-28T04:58:07.537Z,100299.09
2017-04-28T05:00:38.144Z,100300.75
2017-04-28T05:03:09.258Z,100301.23
2017-04-28T05:05:40.280Z,100303.45
2017-04-28T05:08:11.287Z,100300.35
2017-04-28T05:10:42.152Z,100299.81
2017-04-28T05:13:13.181Z,100298.19
2017-04-28T05:15:43.716Z,100294.49
2017-04-28T05:18:14.638Z,100288.65
2017-04-28T05:20:45.601Z,100295.84
2017-04-28T05:23:16.746Z,100293.61
2017-04-28T05:25:47.742Z,100293.05
2017-04-28T05:28:18.709Z,100305.16
2017-04-28T05:30:49.557Z,100302.59
2017-04-28T05:33:20.597Z,100317.87
2017-04-28T05:35:51.569Z,100309.69
2017-04-28T05:38:22.707Z,100305.13
2017-04-28T05:40:53.601Z,100303.55
2017-04-28T05:43:24.522Z,100306.73
2017-04-28T05:45:55.199Z,100305.60
2017-04-28T05:48:26.174Z,100312.36
2017-04-28T05:50:56.968Z,100310.67
2017-04-28T05:53:28.024Z,100320.45
2017-04-28T05:55:59.033Z,100314.17
2017-04-28T05:58:29.796Z,100317.80
2017-04-28T06:01:00.415Z,100314.48
2017-04-28T06:03:31.233Z,100309.94
2017-04-28T06:06:02.182Z,100304.52
2017-04-28T06:08:33.145Z,100304.49
2017-04-28T06:11:04.160Z,100303.37
2017-04-28T06:13:35.095Z,100301.05
2017-04-28T06:16:06.138Z,100305.55
2017-04-28T06:18:39.838Z,100299.89
2017-04-28T06:21:12.302Z,100303.28
2017-04-28T06:23:43.219Z,100298.45
2017-04-28T06:26:13.714Z,100301.75
2017-04-28T06:28:44.478Z,100293.93
2017-04-28T06:31:15.414Z,100292.53
2017-04-28T06:33:46.281Z,100293.73
2017-04-28T06:36:17.309Z,100296.23
2017-04-28T06:38:47.798Z,100297.52
2017-04-28T06:41:18.588Z,100289.26
2017-04-28T06:43:49.617Z,100291.13
2017-04-28T06:46:20.630Z,100293.04
2017-04-28T06:48:51.358Z,100293.47
2017-04-28T06:51:22.284Z,100292.69
2017-04-28T06:53:53.038Z,100293.58
2017-04-28T06:56:23.531Z,100290.52
2017-04-28T06:58:54.012Z,100281.88
2017-04-28T07:01:24.500Z,100282.57
2017-04-28T07:03:55.451Z,100278.24
2017-04-28T07:06:26.382Z,100281.53
2017-04-28T07:08:57.388Z,100275.27
2017-04-28T07:11:28.274Z,100281.98
2017-04-28T07:13:58.997Z,100287.22
2017-04-28T07:16:30.048Z,100286.80
2017-04-28T07:19:01.142Z,100287.29
2017-04-28T07:21:32.026Z,100291.30
2017-04-28T07:24:03.060Z,100295.11
2017-04-28T07:26:33.657Z,100289.13
2017-04-28T07:29:04.736Z,100291.66
2017-04-28T07:31:35.777Z,100290.23
2017-04-28T07:34:06.345Z,100293.06
2017-04-28T07:36:37.301Z,100296.48
2017-04-28T07:39:08.276Z,100299.12
2017-04-28T07:41:38.802Z,100289.41
2017-04-28T07:44:09.651Z,100288.45
2017-04-28T07:46:40.675Z,100289.98
2017-04-28T07:49:11.150Z,100291.28
2017-04-28T07:51:41.901Z,100290.80
2017-04-28T07:54:12.644Z,100285.06
2017-04-28T07:56:43.526Z,100286.53
2017-04-28T07:59:14.543Z,100284.99
2017-04-28T08:01:45.514Z,100291.05
2017-04-28T08:04:16.523Z,100290.20
2017-04-28T08:06:47.433Z,100286.84
2017-04-28T08:09:17.905Z,100287.72
2017-04-28T08:11:48.888Z,100290.55
2017-04-28T08:14:20.238Z,100291.69
2017-04-28T08:16:52.037Z,100287.69
2017-04-28T08:19:23.192Z,100286.25
2017-04-28T08:21:54.472Z,100290.45
2017-04-28T08:24:25.660Z,100283.80
2017-04-28T08:26:57.027Z,100286.47
2017-04-28T08:29:28.411Z,100287.25
2017-04-28T08:31:59.462Z,100282.97
2017-04-28T08:34:30.590Z,100279.45
2017-04-28T08:37:01.970Z,100272.53
2017-04-28T08:39:33.265Z,100276.19
2017-04-28T08:42:05.159Z,100274.83
2017-04-28T08:44:36.253Z,100274.33
2017-04-28T08:47:08.049Z,100271.70
2017-04-28T08:49:39.002Z,100273.61
2017-04-28T08:52:10.113Z,100275.21
2017-04-28T08:54:41.356Z,100274.13
2017-04-28T08:57:12.625Z,100271.13
2017-04-28T08:59:44.251Z,100270.91
2017-04-28T09:02:15.204Z,100272.30
2017-04-28T09:04:46.254Z,100283.09
2017-04-28T09:07:17.727Z,100281.60
2017-04-28T09:09:48.822Z,100281.92
2017-04-28T09:12:20.259Z,100278.72
2017-04-28T09:14:51.701Z,100267.89
2017-04-28T09:17:23.156Z,100274.52
2017-04-28T09:19:54.263Z,100268.29
2017-04-28T09:22:25.325Z,100273.75
2017-04-28T09:24:56.866Z,100266.20
2017-04-28T09:27:28.267Z,100266.00
2017-04-28T09:29:59.771Z,100263.95
2017-04-28T09:32:31.173Z,100270.46
2017-04-28T09:35:02.489Z,100263.11
2017-04-28T09:37:33.925Z,100254.09
2017-04-28T09:40:05.356Z,100252.41
2017-04-28T09:42:36.451Z,100255.68
2017-04-28T09:45:07.405Z,100253.78
2017-04-28T09:47:38.150Z,100253.33
2017-04-28T09:50:09.049Z,100248.90
2017-04-28T09:52:40.023Z,100250.55
2017-04-28T09:55:11.556Z,100242.97
2017-04-28T09:57:42.311Z,100242.27
2017-04-28T10:00:13.133Z,100243.00
2017-04-28T10:02:44.071Z,100235.38
2017-04-28T10:05:15.065Z,100229.88
2017-04-28T10:07:45.848Z,100233.26
2017-04-28T10:10:16.998Z,100231.97
2017-04-28T10:12:48.865Z,100228.21
2017-04-28T10:15:19.872Z,100230.00
2017-04-28T10:17:50.831Z,100223.17
2017-04-28T10:20:21.812Z,100212.85
2017-04-28T10:22:52.764Z,100211.25
2017-04-28T10:25:24.253Z,100208.52
2017-04-28T10:27:55.803Z,100202.75
2017-04-28T10:30:27.263Z,100203.04
2017-04-28T10:32:58.775Z,100194.69
2017-04-28T10:35:30.057Z,100196.97
2017-04-28T10:38:01.261Z,100194.50
2017-04-28T10:40:32.851Z,100188.70
2017-04-28T10:43:04.207Z,100182.69
2017-04-28T10:45:36.299Z,100184.77
2017-04-28T10:48:07.280Z,100174.19
2017-04-28T10:50:38.541Z,100175.38
2017-04-28T10:53:09.924Z,100172.88
2017-04-28T10:55:41.121Z,100165.92
2017-04-28T10:58:12.387Z,100167.36
2017-04-28T11:00:43.741Z,100164.93
2017-04-28T11:03:14.789Z,100160.86
2017-04-28T11:05:46.311Z,100158.19
2017-04-28T11:08:17.269Z,100147.74
2017-04-28T11:10:48.877Z,100158.52
2017-04-28T11:13:19.891Z,100152.30
2017-04-28T11:15:50.997Z,100151.32
2017-04-28T11:18:22.419Z,100147.63
2017-04-28T11:20:53.422Z,100145.59
2017-04-28T11:23:24.872Z,100148.23
2017-04-28T11:25:56.010Z,100152.93
2017-04-28T11:28:27.393Z,100155.66
2017-04-28T11:30:58.434Z,100150.20
2017-04-28T11:33:30.408Z,100149.84
2017-04-28T11:36:02.528Z,100155.82
2017-04-28T11:38:33.660Z,100152.23
2017-04-28T11:41:04.587Z,100161.30
2017-04-28T11:43:36.008Z,100158.61
2017-04-28T11:46:07.119Z,100158.81
2017-04-28T11:48:38.229Z,100160.46
2017-04-28T11:51:09.545Z,100152.10
2017-04-28T11:53:40.674Z,100156.73
2017-04-28T11:56:12.213Z,100159.68
2017-04-28T11:58:43.723Z,100160.09
2017-04-28T12:01:15.099Z,100161.75
2017-04-28T12:03:46.250Z,100163.19
2017-04-28T12:06:17.174Z,100166.17
2017-04-28T12:08:48.225Z,100167.15
2017-04-28T12:11:19.789Z,100168.41
2017-04-28T12:13:51.345Z,100174.91
2017-04-28T12:16:22.635Z,100171.69
2017-04-28T12:18:53.787Z,100176.73
2017-04-28T12:21:24.921Z,100170.05
2017-04-28T12:23:56.269Z,100176.95
2017-04-28T12:26:27.404Z,100179.37
2017-04-28T12:28:58.856Z,100188.53
2017-04-28T12:31:30.190Z,100191.44
2017-04-28T12:34:00.993Z,100189.09
2017-04-28T12:36:31.669Z,100188.14
2017-04-28T12:39:02.490Z,100191.20
2017-04-28T12:41:33.230Z,100191.50
2017-04-28T12:44:03.725Z,100196.66
2017-04-28T12:46:35.625Z,100195.73
2017-04-28T12:49:06.981Z,100201.20
2017-04-28T12:51:37.871Z,100200.66
2017-04-28T12:54:10.555Z,100202.64
2017-04-28T12:56:42.212Z,100202.15
2017-04-28T12:59:13.333Z,100210.45
2017-04-28T13:01:44.474Z,100203.66
2017-04-28T13:04:15.528Z,100210.59
2017-04-28T13:06:47.971Z,100202.12
2017-04-28T13:09:20.514Z,100201.63
2017-04-28T13:11:52.121Z,100202.78
2017-04-28T13:14:22.827Z,100206.41
2017-04-28T13:16:53.789Z,100205.41
2017-04-28T13:19:24.730Z,100203.63
2017-04-28T13:21:55.613Z,100203.00
2017-04-28T13:24:26.507Z,100199.72
2017-04-28T13:26:57.494Z,100193.37
2017-04-28T13:29:28.375Z,100193.63
2017-04-28T13:31:59.327Z,100198.39
2017-04-28T13:34:30.239Z,100198.23
2017-04-28T13:37:01.178Z,100199.09
2017-04-28T13:39:31.917Z,100194.34
2017-04-28T13:42:02.851Z,100194.60
2017-04-28T13:44:33.750Z,100191.44
2017-04-28T13:47:04.435Z,100192.67
2017-04-28T13:49:35.414Z,100193.04
2017-04-28T13:52:06.328Z,100196.28
2017-04-28T13:54:37.111Z,100191.93
2017-04-28T13:57:07.690Z,100194.75
2017-04-28T13:59:38.524Z,100194.55
2017-04-28T14:02:09.450Z,100191.35
2017-04-28T14:04:40.258Z,100185.55
2017-04-28T14:07:11.118Z,100196.45
2017-04-28T14:09:44.532Z,100193.34
2017-04-28T14:12:16.474Z,100190.39
2017-04-28T14:14:47.438Z,100193.03
2017-04-28T14:17:18.253Z,100202.11
2017-04-28T14:19:49.977Z,100193.38
2017-04-28T14:22:20.778Z,100192.81
2017-04-28T14:24:51.348Z,100194.95
2017-04-28T14:27:22.067Z,100193.73
2017-04-28T14:29:53.186Z,100192.42
2017-04-28T14:32:23.718Z,100191.35
2017-04-28T14:34:54.658Z,100192.42
2017-04-28T14:37:25.608Z,100191.96
2017-04-28T14:39:56.543Z,100192.98
2017-04-28T14:42:27.447Z,100193.23
2017-04-28T14:44:58.257Z,100191.23
2017-04-28T14:47:29.024Z,100188.17
2017-04-28T14:49:59.957Z,100190.59
2017-04-28T14:52:30.826Z,100189.42
2017-04-28T14:55:01.871Z,100190.02
2017-04-28T14:57:32.880Z,100188.41
2017-04-28T15:00:03.860Z,100193.60
2017-04-28T15:02:34.809Z,100187.30
2017-04-28T15:05:05.263Z,100191.74
2017-04-28T15:07:37.256Z,100195.43
2017-04-28T15:10:07.825Z,100187.64
2017-04-28T15:12:38.735Z,100187.77
2017-04-28T15:15:09.408Z,100182.98
2017-04-28T15:17:41.265Z,100184.69
2017-04-28T15:20:12.297Z,100189.77
2017-04-28T15:22:42.822Z,100185.32
2017-04-28T15:25:13.562Z,100187.50
2017-04-28T15:27:44.369Z,100184.55
2017-04-28T15:30:14.931Z,100187.61
2017-04-28T15:32:45.829Z,100186.39
2017-04-28T15:35:16.830Z,100180.44
2017-04-28T15:37:47.551Z,100176.56
2017-04-28T15:40:18.509Z,100183.19
2017-04-28T15:42:49.648Z,100182.97
2017-04-28T15:45:20.953Z,100185.11
2017-04-28T15:47:51.884Z,100180.88
2017-04-28T15:50:22.860Z,100186.21
2017-04-28T15:52:53.945Z,100188.66
2017-04-28T15:55:25.010Z,100196.66
2017-04-28T15:57:55.854Z,100195.37
2017-04-28T16:00:26.033Z,100196.75
2017-04-28T16:02:56.273Z,100190.91
2017-04-28T16:05:26.802Z,100193.23
2017-04-28T16:07:57.095Z,100194.38
2017-04-28T16:10:27.601Z,100191.04
2017-04-28T16:12:59.270Z,100191.04
2017-04-28T16:15:30.236Z,100186.00
2017-04-28T16:18:01.063Z,100185.34
2017-04-28T16:20:31.584Z,100185.28
2017-04-28T16:23:02.397Z,100189.48
2017-04-28T16:25:32.886Z,100187.35
2017-04-28T16:28:03.704Z,100189.31
2017-04-28T16:30:34.532Z,100187.31
2017-04-28T16:33:05.410Z,100186.37
2017-04-28T16:35:36.020Z,100185.87
2017-04-28T16:38:06.583Z,100196.07
2017-04-28T16:40:37.602Z,100197.84
2017-04-28T16:43:08.635Z,100193.28
2017-04-28T16:45:39.446Z,100199.08
2017-04-28T16:48:10.341Z,100199.25
2017-04-28T16:50:41.220Z,100195.41
2017-04-28T16:53:11.697Z,100202.63
2017-04-28T16:55:42.234Z,100202.50
2017-04-28T16:58:13.050Z,100199.67
2017-04-28T17:00:43.925Z,100198.98
2017-04-28T17:03:14.362Z,100200.42
2017-04-28T17:05:45.274Z,100207.96
2017-04-28T17:08:15.513Z,100210.76
2017-04-28T17:10:46.007Z,100216.19
2017-04-28T17:13:16.751Z,100217.03
2017-04-28T17:15:48.276Z,100218.98
2017-04-28T17:18:22.497Z,100222.43
2017-04-28T17:20:58.977Z,100216.58
2017-04-28T17:23:30.420Z,100218.64
2017-04-28T17:26:01.370Z,100216.27
2017-04-28T17:28:32.198Z,100220.37
2017-04-28T17:31:04.926Z,100222.48
2017-04-28T17:33:37.671Z,100226.26
2017-04-28T17:36:10.655Z,100224.41
2017-04-28T17:38:43.972Z,100224.59
2017-04-28T17:41:14.835Z,100233.80
2017-04-28T17:43:46.238Z,100239.25
2017-04-28T17:46:18.079Z,100234.23
2017-04-28T17:48:48.925Z,100236.41
2017-04-28T17:51:19.869Z,100236.77
2017-04-28T17:53:50.552Z,100235.55
2017-04-28T17:56:21.351Z,100242.46
2017-04-28T17:58:52.294Z,100251.73
2017-04-28T18:01:22.742Z,100247.03
2017-04-28T18:03:53.571Z,100249.97
2017-04-28T18:06:25.009Z,100248.72
2017-04-28T18:08:55.718Z,100252.84
2017-04-28T18:11:26.786Z,100253.87
2017-04-28T18:13:57.622Z,100252.50
2017-04-28T18:16:28.865Z,100247.86
2017-04-28T18:18:59.746Z,100253.69
2017-04-28T18:21:30.618Z,100260.96
2017-04-28T18:24:01.472Z,100257.68
2017-04-28T18:26:32.398Z,100268.11
2017-04-28T18:29:03.242Z,100271.00
2017-04-28T18:31:34.025Z,100270.75
2017-04-28T18:34:04.989Z,100271.77
2017-04-28T18:36:35.442Z,100276.64
2017-04-28T18:39:05.801Z,100282.92
2017-04-28T18:41:36.793Z,100280.80
2017-04-28T18:44:07.913Z,100284.97
2017-04-28T18:46:38.819Z,100288.20
2017-04-28T18:49:09.574Z,100296.20
2017-04-28T18:51:40.641Z,100298.45
2017-04-28T18:54:11.619Z,100304.61
2017-04-28T18:56:42.557Z,100304.95
2017-04-28T18:59:13.449Z,100306.88
2017-04-28T19:01:44.259Z,100311.14
2017-04-28T19:04:15.213Z,100311.11
2017-04-28T19:06:46.120Z,100321.77
2017-04-28T19:09:17.571Z,100314.86
2017-04-28T19:11:50.009Z,100314.75
2017-04-28T19:14:20.870Z,100316.25
2017-04-28T19:16:51.777Z,100313.25
2017-04-28T19:19:25.246Z,100322.00
2017-04-28T19:21:56.905Z,100320.29
2017-04-28T19:24:30.624Z,100321.13
2017-04-28T19:27:02.952Z,100320.86
2017-04-28T19:29:33.676Z,100325.72
2017-04-28T19:32:04.848Z,100321.60
2017-04-28T19:34:35.558Z,100330.20
2017-04-28T19:37:06.419Z,100329.29
2017-04-28T19:39:37.147Z,100328.78
2017-04-28T19:42:08.127Z,100333.75
2017-04-28T19:44:38.499Z,100335.58
2017-04-28T19:47:09.550Z,100339.83
2017-04-28T19:49:40.571Z,100343.47
2017-04-28T19:52:11.062Z,100343.49
2017-04-28T19:54:41.950Z,100348.17
2017-04-28T19:57:12.882Z,100355.59
2017-04-28T19:59:43.862Z,100358.19
2017-04-28T20:02:14.797Z,100353.13
2017-04-28T20:04:45.776Z,100354.25
2017-04-28T20:07:16.471Z,100358.02
2017-04-28T20:09:47.502Z,100360.43
2017-04-28T20:12:18.333Z,100360.91
2017-04-28T20:14:49.046Z,100365.91
2017-04-28T20:17:20.031Z,100358.95
2017-04-28T20:19:50.971Z,100357.30
2017-04-28T20:22:21.957Z,100360.35
2017-04-28T20:24:52.894Z,100356.09
2017-04-28T20:27:23.812Z,100356.56
2017-04-28T20:29:54.735Z,100364.45
2017-04-28T20:32:25.723Z,100360.28
2017-04-28T20:34:56.300Z,100364.54
2017-04-28T20:39:47.288Z,100365.17
2017-04-28T20:42:17.983Z,100361.80
2017-04-28T20:44:48.668Z,100366.56
2017-04-28T20:47:18.923Z,100365.13
2017-04-28T20:49:49.825Z,100367.77
2017-04-28T20:52:20.633Z,100371.43
2017-04-28T20:54:51.312Z,100373.75
2017-04-28T20:57:22.062Z,100373.75
2017-04-28T20:59:53.114Z,100371.00
2017-04-28T21:02:23.889Z,100367.20
2017-04-28T21:04:54.477Z,100372.97
2017-04-28T21:07:25.502Z,100378.70
2017-04-28T21:09:56.360Z,100380.81
2017-04-28T21:12:26.990Z,100381.55
2017-04-28T21:14:57.698Z,100376.37
2017-04-28T21:17:28.525Z,100381.98
2017-04-28T21:19:59.434Z,100381.92
2017-04-28T21:22:30.029Z,100377.78
2017-04-28T21:25:00.666Z,100377.20
2017-04-28T21:27:31.704Z,100385.97
2017-04-28T21:30:02.751Z,100383.02
2017-04-28T21:32:33.669Z,100379.85
2017-04-28T21:35:04.411Z,100376.05
2017-04-28T21:37:35.374Z,100376.13
2017-04-28T21:40:06.346Z,100379.48
2017-04-28T21:42:40.129Z,100381.42
2017-04-28T21:45:11.912Z,100380.66
2017-04-28T21:47:45.948Z,100377.98
2017-04-28T21:50:17.953Z,100377.95
2017-04-28T21:52:50.724Z,100375.34
2017-04-28T21:55:25.216Z,100377.34
2017-04-28T21:57:58.258Z,100379.94
2017-04-28T22:00:29.932Z,100382.31
2017-04-28T22:03:01.580Z,100381.29
2017-04-28T22:05:34.694Z,100384.64
2017-04-28T22:08:05.660Z,100386.24
2017-04-28T22:10:39.252Z,100386.98
2017-04-28T22:13:12.611Z,100392.20
2017-04-28T22:15:51.313Z,100385.02
2017-04-28T22:18:22.863Z,100388.00
2017-04-28T22:20:53.757Z,100385.75
2017-04-28T22:23:24.670Z,100392.84
2017-04-28T22:25:55.557Z,100399.67
2017-04-28T22:28:28.282Z,100392.96
2017-04-28T22:30:59.620Z,100401.67
2017-04-28T22:33:31.199Z,100399.08
2017-04-28T22:36:02.132Z,100406.48
2017-04-28T22:38:32.625Z,100416.56
2017-04-28T22:41:03.360Z,100416.95
2017-04-28T22:43:34.190Z,100410.70
2017-04-28T22:46:05.085Z,100401.53
2017-04-28T22:48:35.713Z,100400.88
2017-04-28T22:51:06.641Z,100405.16
2017-04-28T22:53:37.537Z,100411.08
2017-04-28T22:56:08.369Z,100412.75
2017-04-28T22:58:39.259Z,100410.41
2017-04-28T23:01:10.179Z,100419.50
2017-04-28T23:03:40.547Z,100412.72
2017-04-28T23:06:12.293Z,100415.64
2017-04-28T23:08:43.092Z,100419.05
2017-04-28T23:11:13.817Z,100408.58
2017-04-28T23:13:44.448Z,100413.31
2017-04-28T23:16:14.767Z,100416.77
2017-04-28T23:18:45.631Z,100414.77
2017-04-28T23:21:16.309Z,100411.45
2017-04-28T23:23:47.191Z,100416.77
2017-04-28T23:26:17.667Z,100415.77
2017-04-28T23:28:48.641Z,100410.15
2017-04-28T23:31:19.474Z,100408.70
2017-04-28T23:33:51.295Z,100411.48
2017-04-28T23:36:22.122Z,100415.81
2017-04-28T23:38:53.085Z,100410.89
2017-04-28T23:41:23.969Z,100413.81
2017-04-28T23:43:54.821Z,100414.08
2017-04-28T23:46:25.728Z,100420.48
2017-04-28T23:48:56.609Z,100417.81
2017-04-28T23:51:28.345Z,100419.14
2017-04-28T23:53:59.274Z,100414.45
2017-04-28T23:56:30.143Z,100420.02
2017-04-28T23:59:01.361Z,100420.94
